Time;durP1;ratioP1;P1;durP2;ratioP2;P2;SDS_P1;SDS_P2;PMS_P1;PMS_P2;Temp;Humidity;BMP_temperature;BMP_pressure;BME280_temperature;BME280_humidity;BME280_pressure;Samples;Min_cycle;Max_cycle;Signal;HPM_P1;HPM_P2
2022/11/30 00:01:19;;;;;;;66.00;36.35;;;;;;;2.30;83.63;101840.02;1635520;86;22053;-75
2022/11/30 00:04:05;;;;;;;69.85;38.02;;;;;;;2.28;83.56;101839.08;1682485;83;21667;-75
2022/11/30 00:06:50;;;;;;;69.27;37.55;;;;;;;2.27;83.58;101842.45;1683187;83;21116;-75
2022/11/30 00:09:35;;;;;;;73.92;39.08;;;;;;;2.28;83.60;101844.19;1680836;83;21064;-74
2022/11/30 00:12:20;;;;;;;67.47;36.25;;;;;;;2.29;83.63;101845.93;1682906;83;21185;-74
2022/11/30 00:15:11;;;;;;;68.30;38.10;;;;;;;2.31;83.61;101851.96;1681641;83;21116;-75
2022/11/30 00:17:56;;;;;;;66.00;37.13;;;;;;;2.31;83.59;101849.41;1684927;83;20926;-74
2022/11/30 00:20:42;;;;;;;65.75;37.25;;;;;;;2.28;83.50;101860.37;1682349;83;20937;-74
2022/11/30 00:23:28;;;;;;;63.33;36.28;;;;;;;2.25;83.52;101858.98;1683890;83;21398;-75
2022/11/30 00:26:16;;;;;;;65.40;37.13;;;;;;;2.23;83.54;101862.28;1685177;83;20921;-75
2022/11/30 00:29:01;;;;;;;70.05;36.77;;;;;;;2.25;83.58;101860.66;1686238;83;21395;-74
2022/11/30 00:31:46;;;;;;;70.42;37.73;;;;;;;2.26;83.59;101863.67;1682786;83;20913;-74
2022/11/30 00:34:31;;;;;;;69.40;38.23;;;;;;;2.26;83.58;101867.50;1684668;83;20985;-74
2022/11/30 00:37:16;;;;;;;76.25;39.90;;;;;;;2.25;83.60;101862.80;1686011;83;20969;-74
2022/11/30 00:40:01;;;;;;;71.42;37.50;;;;;;;2.22;83.50;101865.23;1687717;83;21004;-74
2022/11/30 00:42:46;;;;;;;69.47;37.63;;;;;;;2.22;83.58;101864.37;1685715;83;21349;-74
2022/11/30 00:45:32;;;;;;;73.17;37.93;;;;;;;2.23;83.54;101868.66;1681355;83;21529;-74
2022/11/30 00:48:17;;;;;;;70.20;37.35;;;;;;;2.22;83.58;101870.34;1682902;83;20973;-74
2022/11/30 00:51:02;;;;;;;69.35;37.93;;;;;;;2.22;83.57;101865.65;1680152;83;21643;-74
2022/11/30 00:53:47;;;;;;;68.78;37.95;;;;;;;2.23;83.55;101867.39;1683750;83;21127;-74
2022/11/30 00:56:32;;;;;;;75.37;38.45;;;;;;;2.20;83.52;101869.42;1685768;83;21444;-74
2022/11/30 00:59:17;;;;;;;68.67;36.53;;;;;;;2.19;83.55;101870.23;1679812;83;20984;-74
2022/11/30 01:02:02;;;;;;;72.55;37.25;;;;;;;2.20;83.53;101873.24;1684565;83;21111;-74
2022/11/30 01:04:47;;;;;;;71.62;37.25;;;;;;;2.19;83.54;101873.19;1683822;83;21115;-74
2022/11/30 01:07:33;;;;;;;71.00;37.15;;;;;;;2.20;83.58;101877.48;1682319;83;21013;-74
2022/11/30 01:10:18;;;;;;;74.67;38.63;;;;;;;2.22;83.58;101874.58;1684630;83;21413;-74
2022/11/30 01:13:04;;;;;;;72.25;38.70;;;;;;;2.21;83.52;101872.44;1683730;83;21056;-74
2022/11/30 01:15:49;;;;;;;65.52;35.78;;;;;;;2.18;83.46;101874.00;1684125;83;21060;-74
2022/11/30 01:18:37;;;;;;;76.12;38.92;;;;;;;2.14;83.50;101881.94;1684259;83;21586;-74
2022/11/30 01:21:26;;;;;;;66.92;38.40;;;;;;;2.13;83.53;101885.30;1682603;83;20961;-74
2022/11/30 01:24:11;;;;;;;70.15;37.35;;;;;;;2.14;83.56;101883.63;1684990;83;20953;-74
2022/11/30 01:26:56;;;;;;;69.90;38.75;;;;;;;2.13;83.52;101885.70;1683945;83;20921;-75
2022/11/30 01:29:41;;;;;;;77.10;39.65;;;;;;;2.13;83.52;101879.33;1685753;83;20957;-74
2022/11/30 01:32:26;;;;;;;71.90;37.70;;;;;;;2.11;83.49;101883.09;1683472;83;20961;-74
2022/11/30 01:35:11;;;;;;;74.03;38.03;;;;;;;2.10;83.51;101884.31;1686703;82;20957;-75
2022/11/30 01:37:56;;;;;;;70.72;39.38;;;;;;;2.10;83.54;101883.91;1682047;83;20981;-74
2022/11/30 01:40:51;;;;;;;69.75;38.23;;;;;;;2.11;83.54;101883.50;1685069;83;20989;-75
2022/11/30 01:43:46;;;;;;;70.32;37.75;;;;;;;2.08;83.50;101885.97;1684188;83;20949;-74
2022/11/30 01:46:53;;;;;;;72.85;38.70;;;;;;;2.09;83.50;101888.55;1695350;82;20993;-74
2022/11/30 01:49:49;;;;;;;77.05;40.38;;;;;;;2.08;83.52;101884.69;1684366;83;21464;-74
2022/11/30 01:52:39;;;;;;;72.72;40.30;;;;;;;2.04;83.49;101884.11;1684750;83;20969;-74
2022/11/30 01:55:34;;;;;;;77.15;38.65;;;;;;;2.04;83.54;101887.94;1685022;83;20969;-74
2022/11/30 01:58:25;;;;;;;71.77;39.50;;;;;;;2.02;83.49;101893.38;1683876;83;21450;-74
2022/11/30 02:01:10;;;;;;;77.55;40.40;;;;;;;2.02;83.52;101895.93;1677505;84;21427;-74
2022/11/30 02:04:01;;;;;;;68.35;37.60;;;;;;;2.02;83.51;101890.83;1681883;84;21552;-74
2022/11/30 02:06:47;;;;;;;74.15;39.20;;;;;;;1.99;83.48;101892.45;1679932;84;20929;-75
2022/11/30 02:09:35;;;;;;;;;;;;;;;1.99;83.50;101894.13;1681439;84;20953;-74
2022/11/30 02:12:27;;;;;;;71.35;37.08;;;;;;;1.99;83.46;101899.23;1679318;82;148317;-74
2022/11/30 02:15:17;;;;;;;74.03;39.00;;;;;;;1.96;83.44;101901.66;1634770;87;20947;-74
2022/11/30 02:18:10;;;;;;;74.65;39.25;;;;;;;1.96;83.47;101904.21;1632507;86;20973;-74
2022/11/30 02:21:03;;;;;;;76.05;39.63;;;;;;;1.94;83.47;101894.35;1652538;85;21009;-74
2022/11/30 02:24:31;;;;;;;79.87;40.52;;;;;;;1.94;83.48;101896.91;1658376;85;21390;-75
2022/11/30 02:27:39;;;;;;;71.70;39.05;;;;;;;1.91;83.43;101893.83;1660550;85;20961;-75
2022/11/30 02:30:24;;;;;;;75.42;39.80;;;;;;;1.91;83.48;101886.17;1660571;85;21069;-74
2022/11/30 02:33:16;;;;;;;79.87;40.98;;;;;;;1.90;83.47;101894.64;1657549;85;21112;-74
2022/11/30 02:36:05;;;;;;;76.37;39.18;;;;;;;1.89;83.44;101892.02;1662704;85;21327;-74
2022/11/30 02:38:51;;;;;;;73.52;39.18;;;;;;;1.87;83.39;101894.92;1657795;85;21084;-74
2022/11/30 02:41:38;;;;;;;76.87;39.05;;;;;;;1.83;83.37;101893.92;1658184;85;21113;-73
2022/11/30 02:44:24;;;;;;;78.02;40.67;;;;;;;1.80;83.40;101891.66;1650616;85;20997;-74
2022/11/30 02:47:44;;;;;;;72.97;39.83;;;;;;;1.80;83.40;101892.53;1666566;84;20953;-74
2022/11/30 02:50:34;;;;;;;73.47;39.80;;;;;;;1.78;83.39;101894.55;1683321;84;21177;-74
2022/11/30 02:53:20;;;;;;;74.00;41.37;;;;;;;1.74;83.33;101892.69;1682808;84;20997;-74
2022/11/30 02:56:05;;;;;;;73.28;38.58;;;;;;;1.70;83.36;101892.97;1681270;84;20933;-74
2022/11/30 02:58:50;;;;;;;70.95;38.95;;;;;;;1.61;83.27;101881.13;1679143;83;21036;-74
2022/11/30 03:01:35;;;;;;;70.30;39.53;;;;;;;1.65;83.32;101902.97;1683073;84;21041;-74
2022/11/30 03:04:20;;;;;;;71.42;38.15;;;;;;;1.63;83.36;101893.52;1680496;84;21312;-75
2022/11/30 03:07:05;;;;;;;73.42;40.12;;;;;;;1.64;83.37;101894.86;1677549;84;21499;-74
2022/11/30 03:09:50;;;;;;;73.95;38.53;;;;;;;1.63;83.33;101894.80;1635278;85;20947;-75
2022/11/30 03:12:35;;;;;;;72.72;38.95;;;;;;;1.60;83.31;101896.82;1643090;86;21519;-74
2022/11/30 03:15:20;;;;;;;76.33;40.38;;;;;;;1.58;83.34;101899.71;1644749;86;20972;-75
2022/11/30 03:18:05;;;;;;;74.07;38.55;;;;;;;1.59;83.36;101899.30;1675025;83;20954;-75
2022/11/30 03:20:50;;;;;;;70.05;37.05;;;;;;;1.57;83.31;101902.19;1665964;84;20990;-74
2022/11/30 03:23:35;;;;;;;75.05;39.78;;;;;;;1.56;83.35;101901.77;1660767;84;20903;-75
2022/11/30 03:26:20;;;;;;;72.85;39.33;;;;;;;1.55;83.35;101900.02;1664352;84;21525;-74
2022/11/30 03:29:05;;;;;;;77.50;40.20;;;;;;;1.55;83.37;101905.98;1664608;84;21411;-75
2022/11/30 03:31:50;;;;;;;76.97;38.45;;;;;;;1.55;83.33;101906.39;1668571;84;21390;-74
2022/11/30 03:34:35;;;;;;;76.65;40.15;;;;;;;1.52;83.30;101919.88;1668761;84;21401;-75
2022/11/30 03:37:20;;;;;;;78.83;39.78;;;;;;;1.49;83.29;101913.78;1668851;84;21045;-74
2022/11/30 03:40:07;;;;;;;84.37;41.30;;;;;;;1.46;83.30;101919.62;1667988;84;20925;-74
2022/11/30 03:42:52;;;;;;;74.85;40.70;;;;;;;1.46;83.32;101926.00;1674590;84;21909;-74
2022/11/30 03:45:37;;;;;;;73.33;39.65;;;;;;;1.44;83.33;101925.46;1664271;82;437461;-75
2022/11/30 03:48:22;;;;;;;82.90;41.88;;;;;;;1.41;83.31;101929.16;1669539;84;20936;-74
2022/11/30 03:51:09;;;;;;;87.70;43.30;;;;;;;1.41;83.33;101929.16;1670563;84;21576;-74
2022/11/30 03:53:54;;;;;;;85.28;42.15;;;;;;;1.39;83.33;101927.81;1659897;84;20982;-74
2022/11/30 03:56:40;;;;;;;86.32;45.20;;;;;;;1.37;83.32;101929.83;1678798;84;21882;-74
2022/11/30 03:59:25;;;;;;;91.07;44.77;;;;;;;1.35;83.31;101933.59;1680552;83;21576;-74
2022/11/30 04:02:10;;;;;;;85.22;43.08;;;;;;;1.31;83.28;101932.98;1689793;83;21746;-74
2022/11/30 04:04:54;;;;;;;85.22;42.20;;;;;;;1.31;83.34;101940.63;1690286;83;20917;-75
2022/11/30 04:07:39;;;;;;;84.40;44.53;;;;;;;1.31;83.39;101943.18;1692892;83;20952;-75
2022/11/30 04:10:24;;;;;;;83.35;42.67;;;;;;;1.31;83.36;101947.00;1689734;83;20957;-74
2022/11/30 04:13:09;;;;;;;83.75;45.25;;;;;;;1.28;83.32;101955.39;1691173;83;20953;-74
2022/11/30 04:15:55;;;;;;;87.53;44.77;;;;;;;1.24;83.26;101954.78;1687252;83;20933;-74
2022/11/30 04:18:40;;;;;;;82.80;43.10;;;;;;;1.20;83.29;101950.36;1654365;85;20966;-74
2022/11/30 04:21:25;;;;;;;89.77;44.13;;;;;;;1.17;83.30;101947.68;1617944;88;21171;-75
2022/11/30 04:24:10;;;;;;;87.22;45.43;;;;;;;1.14;83.27;101946.67;1618646;87;20977;-74
2022/11/30 04:26:55;;;;;;;86.97;45.38;;;;;;;1.12;83.27;101948.28;1648722;85;21821;-74
2022/11/30 04:29:40;;;;;;;85.53;43.75;;;;;;;1.09;83.29;101946.47;1628086;86;20977;-75
2022/11/30 04:32:25;;;;;;;92.30;46.02;;;;;;;1.09;83.30;101945.61;1656452;84;21048;-74
2022/11/30 04:35:10;;;;;;;86.53;44.10;;;;;;;1.08;83.33;101945.13;1652942;85;20974;-74
2022/11/30 04:37:55;;;;;;;91.08;46.00;;;;;;;1.07;83.34;101951.03;1627426;86;21045;-75
2022/11/30 04:40:42;;;;;;;84.50;44.67;;;;;;;1.04;83.30;101949.22;1656916;85;20958;-75
2022/11/30 04:43:27;;;;;;;90.97;46.85;;;;;;;1.02;83.31;101950.86;1654662;85;20962;-75
2022/11/30 04:46:12;;;;;;;91.85;44.65;;;;;;;1.00;83.31;101953.74;1627004;86;20965;-74
2022/11/30 04:48:57;;;;;;;92.12;47.30;;;;;;;1.00;83.36;101958.84;1647301;86;20931;-76
2022/11/30 04:51:42;;;;;;;99.80;47.53;;;;;;;1.01;83.40;101955.89;1609359;83;5001261;-75
2022/11/30 04:54:27;;;;;;;101.22;48.75;;;;;;;1.00;83.40;101965.20;1684477;83;21418;-74
2022/11/30 04:57:12;;;;;;;96.42;47.78;;;;;;;1.01;83.42;101966.95;1685360;83;20974;-75
2022/11/30 04:59:57;;;;;;;91.65;46.42;;;;;;;1.01;83.41;101966.08;1691443;83;20972;-75
2022/11/30 05:02:42;;;;;;;92.62;46.58;;;;;;;1.02;83.42;101975.06;1692466;82;21491;-74
2022/11/30 05:05:26;;;;;;;94.52;48.50;;;;;;;1.01;83.33;101972.44;1698752;82;21579;-74
2022/11/30 05:08:11;;;;;;;90.95;46.18;;;;;;;0.95;83.30;101978.13;1693343;82;21825;-74
2022/11/30 05:10:56;;;;;;;92.02;47.40;;;;;;;0.90;83.35;101979.60;1697629;82;20937;-75
2022/11/30 05:13:41;;;;;;;88.90;44.18;;;;;;;0.87;83.36;101974.37;1702930;82;20965;-80
2022/11/30 05:16:26;;;;;;;91.37;45.50;;;;;;;0.86;83.37;101973.50;1733035;78;21392;-79
2022/11/30 05:19:12;;;;;;;85.75;44.58;;;;;;;0.82;83.35;101973.29;1710295;81;21519;-79
2022/11/30 05:21:57;;;;;;;89.45;44.23;;;;;;;0.82;83.42;101978.38;1728866;81;21440;-79
2022/11/30 05:24:42;;;;;;;86.82;44.05;;;;;;;0.80;83.35;101977.04;1723472;81;20952;-79
2022/11/30 05:27:27;;;;;;;84.07;41.65;;;;;;;0.80;83.41;101978.71;1728863;81;20916;-79
2022/11/30 05:30:12;;;;;;;88.42;43.08;;;;;;;0.74;83.28;101986.94;1725985;81;20960;-81
2022/11/30 05:32:58;;;;;;;87.57;42.83;;;;;;;0.68;83.26;101987.06;1724443;81;21342;-81
2022/11/30 05:35:43;;;;;;;89.32;42.85;;;;;;;0.61;83.28;101993.14;1729308;81;20952;-78
2022/11/30 05:38:28;;;;;;;80.85;40.98;;;;;;;0.59;83.38;102001.50;1728546;81;20936;-77
2022/11/30 05:41:13;;;;;;;80.62;40.58;;;;;;;0.57;83.39;101996.74;1729783;81;20936;-75
2022/11/30 05:43:58;;;;;;;86.90;41.03;;;;;;;0.55;83.40;102003.03;1704226;81;20991;-75
2022/11/30 05:46:43;;;;;;;78.87;38.17;;;;;;;0.52;83.43;102005.44;1726895;81;21167;-75
2022/11/30 05:49:28;;;;;;;78.02;38.53;;;;;;;0.50;83.40;102008.34;1726749;81;20943;-75
2022/11/30 05:52:13;;;;;;;77.32;38.83;;;;;;;0.47;83.33;102006.05;1723834;81;20948;-75
2022/11/30 05:54:59;;;;;;;76.60;36.80;;;;;;;0.44;83.38;102008.05;1726065;81;20977;-78
2022/11/30 05:57:44;;;;;;;75.15;38.08;;;;;;;0.44;83.45;102013.14;1727225;81;20932;-77
2022/11/30 06:00:29;;;;;;;84.47;38.28;;;;;;;0.46;83.46;102019.58;1724623;80;21300;-78
2022/11/30 06:03:14;;;;;;;80.57;41.25;;;;;;;0.45;83.42;102026.73;1735715;82;20881;-77
2022/11/30 06:05:59;;;;;;;81.28;39.58;;;;;;;0.42;83.39;102032.55;1739954;81;21753;-77
2022/11/30 06:08:46;;;;;;;82.92;38.90;;;;;;;0.35;83.31;102028.36;1735043;82;21722;-77
2022/11/30 06:11:30;;;;;;;76.30;37.30;;;;;;;0.29;83.31;102026.40;1674397;84;21842;-76
2022/11/30 06:14:15;;;;;;;82.15;38.83;;;;;;;0.22;83.36;102034.13;1737391;80;21476;-77
2022/11/30 06:17:00;;;;;;;80.75;38.23;;;;;;;0.16;83.40;102046.55;1735007;82;20897;-77
2022/11/30 06:19:45;;;;;;;83.97;39.83;;;;;;;0.12;83.48;102039.97;1734792;82;21364;-77
2022/11/30 06:22:30;;;;;;;80.32;37.30;;;;;;;0.08;83.46;102053.33;1733538;80;20912;-77
2022/11/30 06:25:16;;;;;;;83.85;37.88;;;;;;;0.06;83.51;102048.16;1734546;80;20932;-77
2022/11/30 06:28:01;;;;;;;78.55;37.25;;;;;;;0.07;83.50;102055.39;1713530;81;20965;-77
2022/11/30 06:30:45;;;;;;;84.58;40.38;;;;;;;0.07;83.54;102060.48;1723178;81;20873;-82
2022/11/30 06:33:30;;;;;;;82.42;37.70;;;;;;;0.12;83.63;102062.85;1717087;81;21806;-76
2022/11/30 06:36:21;;;;;;;83.00;38.70;;;;;;;0.18;83.64;102070.39;1724880;81;21461;-76
2022/11/30 06:39:08;;;;;;;77.67;37.70;;;;;;;0.22;83.57;102067.59;1725387;82;20873;-80
2022/11/30 06:41:52;;;;;;;83.95;38.50;;;;;;;0.21;83.59;102067.13;1725982;82;20901;-74
2022/11/30 06:44:37;;;;;;;80.95;37.95;;;;;;;0.23;83.63;102071.48;1724757;82;20913;-73
2022/11/30 06:47:23;;;;;;;86.78;38.70;;;;;;;0.24;83.64;102067.27;1723456;81;20932;-73
2022/11/30 06:50:08;;;;;;;91.10;39.35;;;;;;;0.24;83.68;102065.60;1724040;82;21243;-72
2022/11/30 06:52:54;;;;;;;84.83;37.17;;;;;;;0.24;83.57;102075.78;1724452;82;21397;-72
2022/11/30 06:55:39;;;;;;;81.72;38.13;;;;;;;0.21;83.55;102076.02;1699364;82;21418;-73
2022/11/30 06:58:24;;;;;;;80.87;36.45;;;;;;;0.21;83.61;102073.48;1723211;81;20889;-73
2022/11/30 07:01:13;;;;;;;78.05;34.78;;;;;;;0.22;83.63;102078.64;1723337;81;20965;-73
2022/11/30 07:03:57;;;;;;;80.87;38.35;;;;;;;0.22;83.58;102078.64;1723556;81;20942;-74
2022/11/30 07:06:42;;;;;;;76.28;35.38;;;;;;;0.22;83.54;102082.86;1721652;82;21200;-73
2022/11/30 07:09:27;;;;;;;84.13;36.98;;;;;;;0.18;83.49;102086.92;1723647;82;21461;-73
2022/11/30 07:12:12;;;;;;;85.45;38.33;;;;;;;0.15;83.54;102091.86;1723691;81;21500;-73
2022/11/30 07:14:57;;;;;;;83.52;36.28;;;;;;;0.14;83.67;102087.56;1722840;82;20967;-73
2022/11/30 07:17:42;;;;;;;81.45;37.50;;;;;;;0.13;83.58;102088.76;1723458;82;20865;-72
2022/11/30 07:20:27;;;;;;;83.45;36.03;;;;;;;0.10;83.55;102087.34;1723035;82;21453;-73
2022/11/30 07:26:15;;;;;;;90.53;37.67;;;;;;;0.11;83.58;102089.08;1698364;80;20929;-73
2022/11/30 07:29:00;;;;;;;76.42;34.20;;;;;;;0.11;83.66;102090.35;1714064;82;20957;-74
2022/11/30 07:31:51;;;;;;;86.15;35.80;;;;;;;0.12;83.65;102093.38;1694588;83;20977;-74
2022/11/30 07:34:36;;;;;;;76.77;34.80;;;;;;;0.07;83.71;102090.59;1732870;80;20957;-73
2022/11/30 07:37:20;;;;;;;84.10;36.38;;;;;;;0.00;83.67;102095.77;1732231;81;21367;-74
2022/11/30 07:40:07;;;;;;;81.17;34.60;;;;;;;-0.02;83.64;102106.70;1734059;82;20857;-75
2022/11/30 07:42:54;;;;;;;;;;;;;;;-0.02;83.67;102105.42;1737737;81;21668;-78
2022/11/30 07:45:38;;;;;;;84.92;37.48;;;;;;;-0.01;83.80;102106.77;1731489;80;20120;-77
2022/11/30 07:48:24;;;;;;;84.42;36.23;;;;;;;0.03;83.77;102113.25;1733310;80;20933;-77
2022/11/30 07:51:13;;;;;;;79.32;35.85;;;;;;;0.06;83.83;102108.32;1735099;82;21350;-76
2022/11/30 07:53:59;;;;;;;87.33;37.00;;;;;;;0.09;83.79;102109.34;1714279;82;20917;-75
2022/11/30 07:56:44;;;;;;;78.83;36.53;;;;;;;0.09;83.79;102109.34;1686535;82;21370;-77
2022/11/30 07:59:28;;;;;;;91.92;38.10;;;;;;;0.15;83.89;102113.88;1685307;83;21362;-76
2022/11/30 08:02:13;;;;;;;85.17;37.80;;;;;;;0.15;83.79;102112.59;1723366;81;21307;-74
2022/11/30 08:04:58;;;;;;;87.88;40.17;;;;;;;0.11;83.70;102120.47;1729120;82;20881;-73
2022/11/30 08:07:44;;;;;;;86.82;37.80;;;;;;;0.10;83.79;102120.39;1729758;82;20914;-74
2022/11/30 08:10:29;;;;;;;90.12;38.30;;;;;;;0.08;83.82;102121.59;1730047;81;20912;-73
2022/11/30 08:13:14;;;;;;;85.92;36.77;;;;;;;0.08;83.86;102113.95;1699715;83;21012;-75
2022/11/30 08:16:07;;;;;;;87.20;40.23;;;;;;;0.10;83.85;102126.75;1731343;82;20929;-78
2022/11/30 08:18:55;;;;;;;92.27;41.15;;;;;;;0.10;83.86;102119.13;1711788;82;22006;-75
2022/11/30 08:21:40;;;;;;;83.65;38.67;;;;;;;0.13;83.84;102124.36;1732703;82;21515;-75
2022/11/30 08:24:24;;;;;;;91.80;40.28;;;;;;;0.12;83.89;102118.80;1731308;82;21004;-74
2022/11/30 08:27:10;;;;;;;91.80;39.57;;;;;;;0.14;83.94;102119.35;1732096;81;21057;-75
2022/11/30 08:29:55;;;;;;;91.75;38.50;;;;;;;0.20;84.02;102112.43;1732780;82;21035;-74
2022/11/30 08:32:40;;;;;;;80.57;37.17;;;;;;;0.21;83.93;102117.99;1732716;82;21024;-75
2022/11/30 08:35:25;;;;;;;82.92;37.85;;;;;;;0.24;83.96;102119.42;1733458;82;21059;-74
2022/11/30 08:38:10;;;;;;;84.87;39.10;;;;;;;0.23;83.93;102127.84;1732351;82;21508;-74
2022/11/30 08:40:57;;;;;;;83.17;38.70;;;;;;;0.20;83.85;102123.88;1733492;81;21087;-75
2022/11/30 08:43:42;;;;;;;82.30;36.60;;;;;;;0.19;83.90;102133.58;1733638;82;21016;-75
2022/11/30 08:46:28;;;;;;;83.10;37.15;;;;;;;0.19;84.00;102138.27;1733158;82;22298;-75
2022/11/30 08:49:13;;;;;;;77.58;39.00;;;;;;;0.21;83.96;102144.70;1734344;82;21579;-74
2022/11/30 08:51:58;;;;;;;85.70;39.20;;;;;;;0.19;83.91;102143.75;1617961;79;5001698;-75
2022/11/30 08:54:44;;;;;;;90.35;40.75;;;;;;;0.18;83.98;102149.63;1732617;81;21487;-75
2022/11/30 08:57:30;;;;;;;91.28;40.52;;;;;;;0.18;83.97;102158.14;1709233;82;22684;-74
2022/11/30 09:00:15;;;;;;;;;;;;;;;0.19;84.00;102159.02;1735677;82;21016;-74
2022/11/30 09:03:00;;;;;;;89.67;40.88;;;;;;;0.20;84.09;102158.22;1732720;80;20191;-74
2022/11/30 09:05:45;;;;;;;88.05;39.00;;;;;;;0.22;84.06;102157.89;1734577;82;21079;-74
2022/11/30 09:08:31;;;;;;;90.95;39.18;;;;;;;0.24;84.09;102158.84;1733275;80;21115;-74
2022/11/30 09:11:23;;;;;;;90.35;39.83;;;;;;;0.27;84.13;102155.19;1733376;82;21487;-74
2022/11/30 09:14:09;;;;;;;83.17;36.70;;;;;;;0.29;84.05;102158.28;1718604;80;21044;-73
2022/11/30 09:16:54;;;;;;;85.17;37.17;;;;;;;0.31;84.13;102154.55;1723386;82;21594;-73
2022/11/30 09:19:39;;;;;;;83.33;37.80;;;;;;;0.33;84.10;102158.91;1723083;82;22397;-73
2022/11/30 09:22:24;;;;;;;84.13;38.00;;;;;;;0.33;84.06;102150.01;1680301;83;21105;-74
2022/11/30 09:25:09;;;;;;;92.90;41.08;;;;;;;0.36;84.04;102161.14;1742150;81;21015;-74
2022/11/30 09:27:54;;;;;;;88.75;39.90;;;;;;;0.38;84.06;102158.27;1726190;80;21439;-74
2022/11/30 09:30:39;;;;;;;87.08;40.38;;;;;;;0.39;84.13;102153.66;1722138;82;21016;-73
2022/11/30 09:33:24;;;;;;;97.30;40.33;;;;;;;0.42;84.13;102159.77;1723164;82;21025;-74
2022/11/30 09:36:16;;;;;;;82.82;37.80;;;;;;;0.45;84.20;102149.75;1720878;82;21548;-74
2022/11/30 09:39:01;;;;;;;94.90;40.33;;;;;;;0.48;84.12;102154.98;1723301;81;21097;-74
2022/11/30 09:42:19;;;;;;;90.25;41.48;;;;;;;0.49;84.20;102155.46;1723021;82;21538;-74
2022/11/30 09:45:29;;;;;;;95.30;41.00;;;;;;;0.48;84.16;102154.11;1722817;82;21008;-73
2022/11/30 09:48:45;;;;;;;82.88;36.73;;;;;;;0.47;84.15;102161.27;1723849;81;20956;-74
2022/11/30 09:51:46;;;;;;;84.55;36.90;;;;;;;0.43;84.12;102161.92;1721551;82;21056;-74
2022/11/30 09:54:41;;;;;;;73.02;35.75;;;;;;;0.42;84.20;102162.72;1723353;81;21017;-73
2022/11/30 09:57:34;;;;;;;78.70;35.65;;;;;;;0.43;84.17;102156.83;1721672;82;21028;-73
2022/11/30 10:00:22;;;;;;;85.72;37.88;;;;;;;0.42;84.17;102162.31;1723375;82;21048;-75
2022/11/30 10:03:07;;;;;;;85.20;37.40;;;;;;;0.41;84.14;102155.48;1722480;82;21583;-73
2022/11/30 10:05:57;;;;;;;74.62;35.23;;;;;;;0.42;84.23;102148.32;1722221;82;21036;-73
2022/11/30 10:08:57;;;;;;;81.80;36.00;;;;;;;0.45;84.31;102155.23;1722624;81;21456;-73
2022/11/30 10:11:56;;;;;;;78.12;36.30;;;;;;;0.44;84.13;102159.45;1722844;81;21011;-73
2022/11/30 10:15:13;;;;;;;77.47;36.45;;;;;;;0.42;84.19;102155.08;1703576;82;21431;-73
2022/11/30 10:18:25;;;;;;;82.00;37.23;;;;;;;0.45;84.26;102157.78;1681443;82;21028;-74
2022/11/30 10:21:45;;;;;;;77.42;35.03;;;;;;;0.47;84.20;102157.05;1720844;82;21081;-74
2022/11/30 10:25:05;;;;;;;74.87;34.88;;;;;;;0.47;84.21;102158.33;1722102;81;21595;-74
2022/11/30 10:27:54;;;;;;;73.87;34.98;;;;;;;0.43;84.09;102156.43;1722662;82;21176;-74
2022/11/30 10:43:38;;;;;;;83.83;40.87;;;;;;;0.70;84.13;102149.25;1761165;79;23206;-75
2022/11/30 10:46:43;;;;;;;77.22;37.80;;;;;;;0.61;84.12;102147.52;1769395;78;21102;-75
2022/11/30 10:49:29;;;;;;;80.17;37.93;;;;;;;0.54;84.15;102145.08;1744260;80;21898;-75
2022/11/30 10:52:28;;;;;;;81.12;36.90;;;;;;;0.48;84.21;102148.63;1806143;77;28661;-75
2022/11/30 10:55:27;;;;;;;72.70;37.67;;;;;;;0.44;84.27;102140.77;1805151;77;20967;-75
2022/11/30 10:58:48;;;;;;;78.42;37.53;;;;;;;0.41;84.32;102141.48;1805636;77;20987;-74
2022/11/30 11:01:39;;;;;;;74.90;36.08;;;;;;;0.40;84.38;102142.28;1792185;77;20956;-74
2022/11/30 11:04:26;;;;;;;80.42;38.55;;;;;;;0.43;84.40;102146.25;1778745;78;20890;-73
2022/11/30 11:07:13;;;;;;;80.60;36.75;;;;;;;0.45;84.47;102143.38;1779184;78;20882;-74
2022/11/30 11:10:03;;;;;;;75.80;35.45;;;;;;;0.46;84.36;102145.13;1782472;78;20878;-75
2022/11/30 11:12:51;;;;;;;76.22;34.67;;;;;;;0.42;84.34;102141.96;1779490;78;20949;-75
2022/11/30 11:15:36;;;;;;;79.25;38.67;;;;;;;0.43;84.40;102144.98;1775968;78;21446;-74
2022/11/30 11:18:31;;;;;;;80.35;38.00;;;;;;;0.42;84.28;102146.17;1777521;78;20898;-74
2022/11/30 11:21:19;;;;;;;80.80;37.67;;;;;;;0.42;84.41;102144.50;1786984;76;21748;-74
2022/11/30 11:24:08;;;;;;;84.15;37.85;;;;;;;0.42;84.37;102150.87;1781696;78;20926;-74
2022/11/30 11:26:55;;;;;;;77.78;36.40;;;;;;;0.38;84.33;102143.88;1780351;78;20929;-74
2022/11/30 11:29:40;;;;;;;86.75;39.55;;;;;;;0.36;84.34;102143.33;1744873;78;224628;-74
2022/11/30 11:32:25;;;;;;;79.27;35.95;;;;;;;0.39;84.43;102136.72;1710890;81;20920;-74
2022/11/30 11:35:33;;;;;;;82.17;38.10;;;;;;;0.44;84.49;102142.03;1708394;80;20966;-74
2022/11/30 11:38:28;;;;;;;81.10;39.42;;;;;;;0.42;84.34;102138.55;1724355;80;21558;-74
2022/11/30 11:41:32;;;;;;;85.50;38.30;;;;;;;0.41;84.37;102149.12;1721651;80;20994;-73
2022/11/30 11:44:21;;;;;;;82.75;38.60;;;;;;;0.37;84.31;102142.13;1654204;83;21547;-73
2022/11/30 11:47:10;;;;;;;78.30;36.77;;;;;;;0.36;84.35;102143.33;1693055;82;20957;-74
2022/11/30 11:50:12;;;;;;;82.47;35.48;;;;;;;0.34;84.38;102140.70;1711055;80;21542;-73
2022/11/30 11:53:23;;;;;;;72.72;33.18;;;;;;;0.33;84.39;102140.23;1712089;81;21012;-74
2022/11/30 11:56:27;;;;;;;71.87;33.80;;;;;;;0.29;84.32;102135.39;1715238;81;21387;-73
2022/11/30 11:59:21;;;;;;;77.80;35.20;;;;;;;0.28;84.39;102157.80;1715536;81;20963;-73
2022/11/30 12:02:35;;;;;;;75.35;35.13;;;;;;;0.26;84.36;102147.08;1714248;81;21533;-74
2022/11/30 12:05:34;;;;;;;79.45;35.98;;;;;;;0.25;84.40;102146.20;1711501;81;20920;-73
2022/11/30 12:08:39;;;;;;;79.55;36.75;;;;;;;0.27;84.52;102146.28;1710876;81;21550;-72
2022/11/30 12:11:43;;;;;;;79.70;36.98;;;;;;;0.27;84.46;102152.64;1711165;81;20922;-72
2022/11/30 12:14:30;;;;;;;73.65;35.52;;;;;;;0.24;84.44;102149.55;1712415;81;20936;-73
2022/11/30 12:17:42;;;;;;;85.90;37.38;;;;;;;0.27;84.54;102147.55;1711062;81;20959;-72
2022/11/30 12:20:58;;;;;;;81.02;36.03;;;;;;;0.31;84.55;102149.45;1710077;81;20974;-73
2022/11/30 12:24:02;;;;;;;84.92;38.15;;;;;;;0.32;84.52;102156.29;1710524;81;20937;-73
2022/11/30 12:27:05;;;;;;;80.95;35.68;;;;;;;0.37;84.62;102154.85;1711010;81;20963;-72
2022/11/30 12:30:05;;;;;;;78.05;34.98;;;;;;;0.43;84.59;102153.02;1711233;81;20999;-72
2022/11/30 12:33:12;;;;;;;86.28;35.48;;;;;;;0.43;84.60;102160.25;1712461;81;20959;-75
2022/11/30 12:36:40;;;;;;;84.25;36.68;;;;;;;0.46;84.65;102162.07;1712174;81;20983;-74
2022/11/30 12:39:51;;;;;;;82.10;36.88;;;;;;;0.45;84.52;102163.73;1712003;81;21518;-75
2022/11/30 12:42:53;;;;;;;77.35;33.70;;;;;;;0.40;84.51;102161.36;1686603;81;20947;-72
2022/11/30 12:45:44;;;;;;;80.32;37.50;;;;;;;0.44;84.66;102167.48;1667365;81;21428;-73
2022/11/30 12:48:40;;;;;;;88.50;38.98;;;;;;;0.49;84.70;102167.31;1710228;81;21533;-73
2022/11/30 12:51:32;;;;;;;;;;;;;;;0.45;84.54;102168.83;1718788;81;20959;-73
2022/11/30 12:54:22;;;;;;;76.70;32.05;;;;;;;0.45;84.59;102174.31;1709040;81;20130;-73
2022/11/30 12:57:26;;;;;;;67.32;32.85;;;;;;;0.44;84.62;102164.94;1714746;81;21388;-75
2022/11/30 13:00:20;;;;;;;74.65;33.58;;;;;;;0.47;84.64;102171.05;1710079;81;20936;-72
2022/11/30 13:03:32;;;;;;;81.57;35.03;;;;;;;0.45;84.63;102168.83;1699872;81;20963;-72
2022/11/30 13:06:31;;;;;;;75.85;32.78;;;;;;;0.49;84.63;102170.73;1709512;81;20955;-72
2022/11/30 13:09:24;;;;;;;81.87;35.65;;;;;;;0.45;84.58;102178.14;1706879;81;21329;-72
2022/11/30 13:12:16;;;;;;;71.55;32.35;;;;;;;0.40;84.52;102170.27;1709620;81;20943;-72
2022/11/30 13:15:06;;;;;;;80.45;34.10;;;;;;;0.40;84.59;102177.91;1709970;81;22172;-72